Jacks Cabin, Colorado
Current Conditions -  °F | °C
As of 9:34 AM on Friday 21 Nov 2014 (Local Time) from K7BM Reporting Station
Clear Clear  
Wind Chill: 22°   Ceiling: Unl
Heat Index: 32°   Visibility: 10mi
Dew Point: 12°   Wind: 14mph
Humidity: 44%   Direction: 320°NW
Pressure: 30.07"   Gusts: 23mph
Location:  38.7752°N, 106.586°W
Report Text: K7BM 211634Z AUTO 32012G20KT 290V360 10SM CLR 00/M11 A3007 RMK AO2
Loading
Personal Weather Stations






























Interactive Weather Map New forecast layout! Learn more

10-Day Weather Forecast

Advertisements
Track Severe Weather on mobile